createdAt,value
2019-02-04T00:01:15.391Z,14.20
2019-02-04T00:03:46.475Z,12.82
2019-02-04T00:06:17.419Z,16.82
2019-02-04T00:08:50.360Z,15.43
2019-02-04T00:11:22.564Z,13.48
2019-02-04T00:13:52.991Z,11.90
2019-02-04T00:16:40.391Z,20.10
2019-02-04T00:19:04.479Z,20.50
2019-02-04T00:21:34.652Z,18.42
2019-02-04T00:24:05.757Z,13.60
2019-02-04T00:26:36.847Z,8.78
2019-02-04T00:29:07.092Z,9.73
2019-02-04T00:31:38.157Z,15.00
2019-02-04T00:34:09.241Z,10.72
2019-02-04T00:36:39.146Z,15.03
2019-02-04T00:39:10.829Z,8.95
2019-02-04T00:41:40.904Z,8.80
2019-02-04T00:44:10.868Z,10.82
2019-02-04T00:46:51.801Z,12.65
2019-02-04T00:49:13.569Z,10.05
2019-02-04T00:51:47.611Z,11.65
2019-02-04T00:54:17.595Z,12.98
2019-02-04T00:56:48.502Z,9.55
2019-02-04T00:59:27.569Z,13.70
2019-02-04T01:01:58.681Z,13.40
2019-02-04T01:04:34.496Z,9.48
2019-02-04T01:07:08.097Z,12.53
2019-02-04T01:09:37.936Z,16.62
2019-02-04T01:12:13.344Z,12.33
2019-02-04T01:14:48.059Z,9.83
2019-02-04T01:17:18.038Z,13.60
2019-02-04T01:19:56.804Z,17.05
2019-02-04T01:22:26.508Z,9.28
2019-02-04T01:24:56.195Z,11.00
2019-02-04T01:27:26.269Z,11.60
2019-02-04T01:29:55.996Z,12.33
2019-02-04T01:32:32.552Z,20.05
2019-02-04T01:35:09.768Z,7.78
2019-02-04T01:37:39.892Z,11.88
2019-02-04T01:40:12.816Z,11.00
2019-02-04T01:42:42.792Z,9.40
2019-02-04T01:45:14.920Z,14.07
2019-02-04T01:47:47.024Z,16.67
2019-02-04T01:50:20.330Z,11.20
2019-02-04T01:52:50.331Z,12.60
2019-02-04T01:55:20.168Z,9.90
2019-02-04T01:57:52.257Z,8.25
2019-02-04T02:00:34.784Z,11.10
2019-02-04T02:03:06.981Z,8.55
2019-02-04T02:05:38.801Z,9.20
2019-02-04T02:08:10.612Z,15.10
2019-02-04T02:10:41.357Z,11.60
2019-02-04T02:13:12.257Z,10.70
2019-02-04T02:15:42.080Z,13.28
2019-02-04T02:18:15.260Z,6.47
2019-02-04T02:20:51.053Z,6.30
2019-02-04T02:23:20.732Z,6.85
2019-02-04T02:25:51.528Z,7.80
2019-02-04T02:28:22.500Z,6.10
2019-02-04T02:30:54.804Z,43.50
2019-02-04T02:33:24.831Z,22.60
2019-02-04T02:35:54.939Z,36.20
2019-02-04T02:38:27.016Z,32.10
2019-02-04T02:40:56.728Z,11.90
2019-02-04T02:43:26.678Z,9.55
2019-02-04T02:45:57.294Z,9.95
2019-02-04T02:48:27.076Z,12.88
2019-02-04T02:50:57.708Z,9.33
2019-02-04T02:53:33.172Z,8.18
2019-02-04T02:56:03.106Z,8.65
2019-02-04T02:58:33.918Z,7.95
2019-02-04T03:01:09.812Z,10.03
2019-02-04T03:03:40.792Z,8.60
2019-02-04T03:06:12.216Z,13.40
2019-02-04T03:08:44.238Z,11.05
2019-02-04T03:11:14.369Z,10.25
2019-02-04T03:13:45.401Z,7.65
2019-02-04T03:16:16.609Z,89.83
2019-02-04T03:18:46.626Z,133.10
2019-02-04T03:21:17.732Z,124.80
2019-02-04T03:23:54.797Z,40.17
2019-02-04T03:26:24.912Z,214.42
2019-02-04T03:28:55.970Z,112.15
2019-02-04T03:31:30.058Z,63.10
2019-02-04T03:34:00.336Z,24.98
2019-02-04T03:36:30.184Z,8.05
2019-02-04T03:39:00.137Z,19.80
2019-02-04T03:41:33.508Z,12.58
2019-02-04T03:44:05.421Z,31.25
2019-02-04T03:46:39.421Z,26.97
2019-02-04T03:49:09.657Z,71.53
2019-02-04T03:51:40.404Z,25.27
2019-02-04T03:54:16.122Z,12.95
2019-02-04T03:56:46.464Z,210.63
2019-02-04T03:59:23.416Z,236.72
2019-02-04T04:01:53.509Z,104.45
2019-02-04T04:04:23.660Z,99.80
2019-02-04T04:06:55.698Z,42.35
2019-02-04T04:09:26.477Z,36.95
2019-02-04T04:11:57.112Z,27.30
2019-02-04T04:14:30.038Z,41.05
2019-02-04T04:17:00.145Z,22.00
2019-02-04T04:19:30.004Z,31.23
2019-02-04T04:21:59.994Z,4.25
2019-02-04T04:24:29.853Z,71.20
2019-02-04T04:27:00.748Z,110.80
2019-02-04T04:29:31.069Z,4.95
2019-02-04T04:32:02.015Z,31.55
2019-02-04T04:34:31.837Z,31.17
2019-02-04T04:37:01.534Z,54.15
2019-02-04T04:39:31.240Z,57.20
2019-02-04T04:42:06.973Z,51.08
2019-02-04T04:44:37.768Z,63.60
2019-02-04T04:47:07.488Z,62.67
2019-02-04T04:49:37.680Z,45.45
2019-02-04T04:52:07.797Z,21.05
2019-02-04T04:54:49.971Z,24.52
2019-02-04T04:57:20.076Z,38.45
2019-02-04T04:59:51.116Z,62.78
2019-02-04T05:02:20.948Z,56.40
2019-02-04T05:04:51.810Z,7.95
2019-02-04T05:07:23.796Z,39.53
2019-02-04T05:09:55.689Z,14.53
2019-02-04T05:12:26.756Z,32.10
2019-02-04T05:14:58.548Z,8.15
2019-02-04T05:17:29.424Z,14.85
2019-02-04T05:20:00.536Z,12.05
2019-02-04T05:22:30.340Z,61.45
2019-02-04T05:25:01.210Z,27.60
2019-02-04T05:27:32.107Z,25.00
2019-02-04T05:30:05.936Z,46.13
2019-02-04T05:32:36.028Z,30.68
2019-02-04T05:35:08.258Z,17.02
2019-02-04T05:37:40.044Z,46.05
2019-02-04T05:40:16.403Z,17.42
2019-02-04T05:42:48.582Z,26.93
2019-02-04T05:45:21.334Z,22.77
2019-02-04T05:47:51.435Z,14.43
2019-02-04T05:50:29.575Z,16.12
2019-02-04T05:52:59.655Z,17.52
2019-02-04T05:55:30.603Z,20.10
2019-02-04T05:58:00.588Z,4.15
2019-02-04T06:00:44.212Z,25.97
2019-02-04T06:03:15.194Z,22.35
2019-02-04T06:05:45.199Z,3.15
2019-02-04T06:08:15.196Z,23.47
2019-02-04T06:10:47.268Z,9.35
2019-02-04T06:13:17.597Z,8.83
2019-02-04T06:15:48.646Z,12.28
2019-02-04T06:18:19.841Z,16.07
2019-02-04T06:20:49.812Z,26.68
2019-02-04T06:23:19.918Z,20.92
2019-02-04T06:25:51.053Z,31.75
2019-02-04T06:28:21.414Z,59.75
2019-02-04T06:30:51.633Z,88.30
2019-02-04T06:33:21.461Z,16.42
2019-02-04T06:35:51.442Z,10.13
2019-02-04T06:38:39.416Z,6.00
2019-02-04T06:41:17.265Z,9.40
2019-02-04T06:43:50.508Z,5.87
2019-02-04T06:46:24.688Z,22.93
2019-02-04T06:48:54.800Z,5.47
2019-02-04T06:51:28.657Z,15.40
2019-02-04T06:54:05.926Z,25.45
2019-02-04T06:56:39.138Z,4.60
2019-02-04T06:59:15.294Z,6.92
2019-02-04T07:02:03.661Z,7.33
2019-02-04T07:04:34.961Z,7.40
2019-02-04T07:07:06.984Z,5.40
2019-02-04T07:09:42.924Z,6.92
2019-02-04T07:12:13.266Z,7.35
2019-02-04T07:14:43.084Z,10.63
2019-02-04T07:17:12.876Z,8.18
2019-02-04T07:19:49.938Z,19.17
2019-02-04T07:22:26.154Z,13.25
2019-02-04T07:24:57.969Z,5.97
2019-02-04T07:27:29.865Z,13.75
2019-02-04T07:29:59.973Z,11.00
2019-02-04T07:32:29.809Z,8.33
2019-02-04T07:34:59.489Z,7.25
2019-02-04T07:37:29.673Z,6.20
2019-02-04T07:39:59.647Z,5.05
2019-02-04T07:42:31.372Z,7.20
2019-02-04T07:45:09.204Z,5.90
2019-02-04T07:47:45.985Z,7.03
2019-02-04T07:50:16.292Z,21.57
2019-02-04T07:52:49.663Z,8.30
2019-02-04T07:55:19.508Z,13.48
2019-02-04T07:57:58.108Z,20.48
2019-02-04T08:00:34.231Z,5.92
2019-02-04T08:03:14.958Z,6.35
2019-02-04T08:05:43.601Z,6.78
2019-02-04T08:08:15.236Z,10.43
2019-02-04T08:10:47.196Z,5.58
2019-02-04T08:13:16.888Z,5.97
2019-02-04T08:15:46.595Z,7.17
2019-02-04T08:18:16.601Z,6.03
2019-02-04T08:20:46.357Z,18.35
2019-02-04T08:23:16.970Z,6.95
2019-02-04T08:25:46.664Z,6.62
2019-02-04T08:28:18.237Z,6.78
2019-02-04T08:30:48.253Z,7.12
2019-02-04T08:33:18.109Z,6.55
2019-02-04T08:35:47.829Z,6.70
2019-02-04T08:38:19.069Z,10.38
2019-02-04T08:40:48.760Z,10.65
2019-02-04T08:43:18.469Z,13.83
2019-02-04T08:45:49.928Z,6.55
2019-02-04T08:48:20.097Z,6.30
2019-02-04T08:50:49.784Z,6.70
2019-02-04T08:53:20.685Z,9.00
2019-02-04T08:55:50.380Z,9.28
2019-02-04T08:58:21.005Z,11.30
2019-02-04T09:00:51.645Z,12.25
2019-02-04T09:03:22.244Z,7.37
2019-02-04T09:05:51.929Z,11.90
2019-02-04T09:08:21.625Z,7.20
2019-02-04T09:10:52.360Z,12.82
2019-02-04T09:13:23.040Z,11.40
2019-02-04T09:15:52.724Z,9.80
2019-02-04T09:18:23.305Z,8.10
2019-02-04T09:20:52.984Z,9.00
2019-02-04T09:23:22.677Z,12.33
2019-02-04T09:25:52.382Z,9.93
2019-02-04T09:28:22.064Z,10.90
2019-02-04T09:30:52.948Z,10.60
2019-02-04T09:33:23.532Z,13.50
2019-02-04T09:35:54.510Z,12.40
2019-02-04T09:38:24.204Z,10.78
2019-02-04T09:40:53.897Z,9.83
2019-02-04T09:43:23.584Z,10.00
2019-02-04T09:45:53.273Z,13.80
2019-02-04T09:48:23.049Z,11.70
2019-02-04T09:50:53.298Z,14.03
2019-02-04T09:53:23.009Z,12.85
2019-02-04T09:55:52.732Z,16.23
2019-02-04T09:58:22.420Z,12.05
2019-02-04T10:00:52.192Z,15.28
2019-02-04T10:03:21.881Z,14.85
2019-02-04T10:05:51.580Z,20.25
2019-02-04T10:08:21.331Z,11.53
2019-02-04T10:10:51.052Z,15.72
2019-02-04T10:13:21.629Z,17.37
2019-02-04T10:15:51.308Z,18.17
2019-02-04T10:18:21.396Z,22.67
2019-02-04T10:20:51.146Z,15.35
2019-02-04T10:23:21.795Z,20.20
2019-02-04T10:25:51.522Z,18.98
2019-02-04T10:28:21.547Z,19.92
2019-02-04T10:30:51.307Z,18.65
2019-02-04T10:33:21.245Z,26.55
2019-02-04T10:35:50.943Z,25.10
2019-02-04T10:38:20.694Z,18.60
2019-02-04T10:40:50.527Z,18.73
2019-02-04T10:43:21.632Z,31.00
2019-02-04T10:45:54.039Z,17.07
2019-02-04T10:48:24.716Z,13.97
2019-02-04T10:50:56.527Z,14.17
2019-02-04T10:53:26.533Z,16.70
2019-02-04T10:55:56.678Z,13.13
2019-02-04T10:58:26.814Z,12.10
2019-02-04T11:01:21.299Z,12.67
2019-02-04T11:03:57.744Z,13.20
2019-02-04T11:06:28.917Z,13.23
2019-02-04T11:09:07.694Z,13.33
2019-02-04T11:11:39.759Z,11.17
2019-02-04T11:14:13.699Z,12.73
2019-02-04T11:16:49.485Z,13.90
2019-02-04T11:19:21.752Z,9.87
2019-02-04T11:22:05.181Z,9.50
2019-02-04T11:24:45.157Z,13.10
2019-02-04T11:27:29.513Z,12.20
2019-02-04T11:30:16.086Z,8.77
2019-02-04T11:32:46.342Z,11.03
2019-02-04T11:35:17.524Z,9.70
2019-02-04T11:37:48.353Z,12.97
2019-02-04T11:40:31.767Z,9.40
2019-02-04T11:50:16.319Z,7.73
2019-02-04T11:53:18.825Z,8.53
2019-02-04T12:03:38.210Z,10.10
2019-02-04T12:06:42.466Z,8.17
2019-02-04T12:09:37.441Z,12.10
2019-02-04T12:12:13.585Z,6.67
2019-02-04T12:14:50.654Z,8.70
2019-02-04T12:17:20.673Z,7.20
2019-02-04T12:20:05.329Z,12.57
2019-02-04T12:22:42.521Z,6.93
2019-02-04T12:25:19.685Z,8.70
2019-02-04T12:27:49.894Z,7.53
2019-02-04T12:30:41.797Z,7.63
2019-02-04T12:33:16.970Z,8.90
2019-02-04T12:35:46.909Z,8.63
2019-02-04T12:38:18.185Z,9.93
2019-02-04T12:40:53.169Z,7.60
2019-02-04T12:43:24.050Z,7.90
2019-02-04T12:45:54.250Z,6.80
2019-02-04T12:48:27.325Z,5.50
2019-02-04T12:50:57.322Z,9.80
2019-02-04T12:53:28.231Z,6.10
2019-02-04T12:55:58.125Z,5.57
2019-02-04T12:58:29.760Z,5.30
2019-02-04T13:00:59.449Z,10.00
2019-02-04T13:03:29.530Z,6.77
2019-02-04T13:05:59.557Z,6.30
2019-02-04T13:08:33.287Z,10.80
2019-02-04T13:11:06.645Z,6.47
2019-02-04T13:13:36.473Z,5.77
2019-02-04T13:16:13.105Z,4.90
2019-02-04T13:18:47.789Z,9.70
2019-02-04T13:21:28.865Z,5.93
2019-02-04T13:24:05.935Z,6.87
2019-02-04T13:26:37.035Z,5.87
2019-02-04T13:29:06.875Z,7.23
2019-02-04T13:31:37.517Z,4.93
2019-02-04T13:34:07.531Z,6.80
2019-02-04T13:36:37.614Z,8.80
2019-02-04T13:39:19.650Z,9.70
2019-02-04T13:41:49.599Z,6.70
2019-02-04T13:44:28.021Z,6.07
2019-02-04T13:46:57.833Z,6.53
2019-02-04T13:49:27.533Z,7.60
2019-02-04T13:51:57.996Z,3.87
2019-02-04T13:54:27.794Z,4.90
2019-02-04T13:56:57.746Z,5.30
2019-02-04T13:59:36.476Z,5.30
2019-02-04T14:02:13.448Z,3.97
2019-02-04T14:04:49.666Z,6.13
2019-02-04T14:07:27.473Z,3.37
2019-02-04T14:10:08.974Z,3.60
2019-02-04T14:12:51.202Z,4.40
2019-02-04T14:15:21.358Z,4.27
2019-02-04T14:17:51.050Z,4.85
2019-02-04T14:20:27.229Z,4.10
2019-02-04T14:22:56.910Z,3.83
2019-02-04T14:25:27.858Z,3.43
2019-02-04T14:27:57.964Z,9.50
2019-02-04T14:30:32.554Z,3.57
2019-02-04T14:33:02.863Z,3.93
2019-02-04T14:35:33.708Z,4.00
2019-02-04T14:38:18.612Z,5.13
2019-02-04T14:40:51.637Z,4.07
2019-02-04T14:43:30.115Z,3.70
2019-02-04T14:46:32.729Z,10.30
2019-02-04T14:49:40.590Z,4.00
2019-02-04T14:52:26.466Z,3.50
2019-02-04T14:55:04.244Z,5.30
2019-02-04T14:57:54.747Z,6.93
2019-02-04T15:00:36.847Z,3.47
2019-02-04T15:03:19.725Z,5.53
2019-02-04T15:06:16.092Z,4.30
2019-02-04T15:09:00.468Z,6.70
2019-02-04T15:11:40.828Z,3.67
2019-02-04T15:14:42.362Z,7.00
2019-02-04T15:17:18.037Z,5.70
2019-02-04T15:20:10.613Z,6.90
2019-02-04T15:22:45.460Z,6.77
2019-02-04T15:25:48.414Z,4.20
2019-02-04T15:28:26.879Z,9.30
2019-02-04T15:31:00.727Z,6.00
2019-02-04T15:33:38.451Z,5.67
2019-02-04T15:36:52.556Z,6.07
2019-02-04T15:39:29.864Z,9.25
2019-02-04T15:42:38.844Z,5.05
2019-02-04T15:45:51.578Z,8.73
2019-02-04T15:48:24.150Z,5.00
2019-02-04T15:51:18.318Z,4.85
2019-02-04T15:53:48.412Z,5.60
2019-02-04T15:56:18.246Z,8.48
2019-02-04T15:58:48.196Z,6.10
2019-02-04T16:01:18.034Z,7.30
2019-02-04T16:03:48.019Z,6.75
2019-02-04T16:06:17.838Z,8.43
2019-02-04T16:08:50.186Z,6.30
2019-02-04T16:11:20.364Z,12.03
2019-02-04T16:14:07.272Z,12.43
2019-02-04T16:16:54.407Z,6.25
2019-02-04T16:19:24.175Z,11.70
2019-02-04T16:22:03.153Z,6.85
2019-02-04T16:24:33.351Z,10.38
2019-02-04T16:27:03.689Z,6.95
2019-02-04T16:29:35.511Z,5.60
2019-02-04T16:32:18.256Z,5.70
2019-02-04T16:34:48.881Z,8.43
2019-02-04T16:37:19.735Z,8.83
2019-02-04T16:39:56.155Z,7.90
2019-02-04T16:42:26.950Z,7.00
2019-02-04T16:44:58.571Z,5.17
2019-02-04T16:47:30.899Z,8.83
2019-02-04T16:50:02.591Z,6.28
2019-02-04T16:52:32.291Z,5.95
2019-02-04T16:55:03.107Z,9.18
2019-02-04T16:57:33.755Z,10.82
2019-02-04T17:00:08.012Z,12.68
2019-02-04T17:02:45.567Z,17.05
2019-02-04T17:05:38.015Z,13.65
2019-02-04T17:08:14.999Z,12.10
2019-02-04T17:10:52.336Z,17.30
2019-02-04T17:13:26.480Z,15.45
2019-02-04T17:15:57.489Z,8.15
2019-02-04T17:18:41.558Z,7.67
2019-02-04T17:21:11.591Z,9.10
2019-02-04T17:23:41.645Z,8.20
2019-02-04T17:26:11.808Z,9.68
2019-02-04T17:28:49.524Z,9.70
2019-02-04T17:31:19.367Z,15.15
2019-02-04T17:33:49.607Z,6.70
2019-02-04T17:36:25.596Z,4.30
2019-02-04T17:38:56.541Z,7.78
2019-02-04T17:41:33.247Z,10.72
2019-02-04T17:44:20.156Z,8.35
2019-02-04T17:46:54.375Z,8.38
2019-02-04T17:49:26.258Z,9.38
2019-02-04T17:51:59.263Z,7.17
2019-02-04T17:54:48.999Z,11.18
2019-02-04T17:57:19.236Z,5.95
2019-02-04T18:00:01.269Z,7.15
2019-02-04T18:03:17.260Z,9.75
2019-02-04T18:05:52.402Z,71.33
2019-02-04T18:08:24.479Z,10.48
2019-02-04T18:10:54.588Z,15.58
2019-02-04T18:13:25.383Z,10.00
2019-02-04T18:15:59.091Z,18.00
2019-02-04T18:18:40.827Z,5.60
2019-02-04T18:21:12.878Z,8.03
2019-02-04T18:23:59.128Z,6.87
2019-02-04T18:26:34.131Z,8.53
2019-02-04T18:29:10.251Z,7.58
2019-02-04T18:31:46.927Z,15.05
2019-02-04T18:34:40.169Z,7.37
2019-02-04T18:37:18.247Z,6.90
2019-02-04T18:40:23.520Z,10.10
2019-02-04T18:43:01.520Z,13.50
2019-02-04T18:45:50.993Z,12.30
2019-02-04T18:48:39.531Z,10.25
2019-02-04T18:51:42.310Z,7.92
2019-02-04T18:54:18.759Z,19.35
2019-02-04T18:56:54.972Z,10.82
2019-02-04T19:04:25.176Z,7.40
2019-02-04T19:14:43.839Z,12.60
2019-02-04T19:17:29.063Z,15.55
2019-02-04T19:27:49.176Z,18.77
2019-02-04T19:33:20.079Z,10.68
2019-02-04T19:39:42.675Z,8.73
2019-02-04T19:45:47.392Z,8.10
2019-02-04T19:52:24.143Z,8.33
2019-02-04T19:59:11.873Z,6.70
2019-02-04T20:05:51.118Z,12.68
2019-02-04T20:12:33.791Z,9.75
2019-02-04T20:47:14.103Z,47.95
2019-02-04T21:04:24.179Z,11.30
2019-02-04T21:11:15.973Z,11.57
2019-02-04T21:14:19.295Z,7.25
2019-02-04T21:17:43.400Z,10.78
2019-02-04T21:20:28.251Z,14.80
2019-02-04T21:23:00.531Z,6.60
2019-02-04T21:25:58.952Z,8.48
2019-02-04T21:32:20.578Z,7.10
2019-02-04T21:35:41.540Z,7.37
2019-02-04T21:38:27.447Z,7.87
2019-02-04T21:41:05.035Z,8.65
2019-02-04T21:43:40.735Z,8.98
2019-02-04T21:46:48.305Z,8.40
2019-02-04T21:49:50.973Z,9.80
2019-02-04T21:52:24.727Z,9.83
2019-02-04T21:55:08.052Z,8.18
2019-02-04T21:57:38.011Z,6.55
2019-02-04T22:01:00.803Z,7.85
2019-02-04T22:04:05.887Z,8.05
2019-02-04T22:06:59.982Z,6.62
2019-02-04T22:13:16.514Z,7.20
2019-02-04T22:16:24.603Z,6.62
2019-02-04T22:19:07.319Z,8.38
2019-02-04T22:21:48.143Z,13.08
2019-02-04T22:25:00.363Z,4.90
2019-02-04T22:27:44.516Z,10.55
2019-02-04T22:34:03.265Z,11.40
2019-02-04T22:39:39.271Z,8.10
2019-02-04T22:42:31.487Z,12.10
2019-02-04T22:45:20.511Z,4.28
2019-02-04T22:51:39.727Z,10.28
2019-02-04T22:54:29.291Z,11.22
2019-02-04T22:57:19.265Z,16.07
2019-02-04T23:00:55.499Z,10.72
2019-02-04T23:03:28.701Z,6.45
2019-02-04T23:06:11.267Z,9.43
2019-02-04T23:08:48.123Z,8.33
2019-02-04T23:11:25.557Z,7.67
2019-02-04T23:14:17.085Z,10.68
2019-02-04T23:16:51.324Z,15.13
2019-02-04T23:19:27.373Z,10.23
2019-02-04T23:22:10.552Z,11.85
2019-02-04T23:24:43.171Z,7.33
2019-02-04T23:27:15.417Z,6.35
2019-02-04T23:29:47.260Z,9.68
2019-02-04T23:32:20.419Z,9.63
2019-02-04T23:35:12.011Z,11.33
2019-02-04T23:37:49.851Z,9.15
2019-02-04T23:40:26.889Z,8.88
2019-02-04T23:43:15.957Z,9.35
2019-02-04T23:45:59.356Z,7.12
2019-02-04T23:48:29.557Z,11.85
2019-02-04T23:51:01.380Z,10.25
2019-02-04T23:53:48.671Z,19.65
2019-02-04T23:56:25.635Z,16.32
2019-02-04T23:59:14.187Z,10.03
